Terminal Aerodrome Forecast
Issued by NWS Corpus Christi, TX

Home | Current Version | Previous Version | Text Only | Print | Product List | Glossary On
Versions: 1 2 3 4 5 6 7 8 9 10 11 12 13 14 15 16
000
FTUS44 KCRP 202000 AAB
TAFVCT
TAF AMD
KVCT 202038Z 2021/2118 12011KT P6SM VCTS SCT030CB BKN150
      TEMPO 2021/2023 VRB15G25KT 2SM +TSRA BKN025CB
     FM210000 VRB04KT P6SM SCT025
      TEMPO 2110/2114 4SM BR BKN018=

USA.gov is the U.S. government's official web portal to all federal, state and local government web resources and services.